createdAt,value
2022-11-28T00:00:26.514Z,32.01
2022-11-28T00:00:56.939Z,32.01
2022-11-28T00:01:27.373Z,32.01
2022-11-28T00:01:57.915Z,32.11
2022-11-28T00:02:28.503Z,32.11
2022-11-28T00:02:59.063Z,32.01
2022-11-28T00:03:29.586Z,31.91
2022-11-28T00:04:00.335Z,31.91
2022-11-28T00:04:30.845Z,31.91
2022-11-28T00:05:01.304Z,31.91
2022-11-28T00:05:31.869Z,31.91
2022-11-28T00:06:02.295Z,31.91
2022-11-28T00:06:32.735Z,31.91
2022-11-28T00:07:03.369Z,32.11
2022-11-28T00:07:33.924Z,32.31
2022-11-28T00:08:04.373Z,32.01
2022-11-28T00:08:34.917Z,31.91
2022-11-28T00:09:05.264Z,32.11
2022-11-28T00:09:35.707Z,32.11
2022-11-28T00:10:06.129Z,32.01
2022-11-28T00:10:36.546Z,31.91
2022-11-28T00:11:06.967Z,31.81
2022-11-28T00:11:37.390Z,31.91
2022-11-28T00:12:07.813Z,31.91
2022-11-28T00:12:38.234Z,31.81
2022-11-28T00:13:08.658Z,31.81
2022-11-28T00:13:39.081Z,31.81
2022-11-28T00:14:09.501Z,31.81
2022-11-28T00:14:40.290Z,32.11
2022-11-28T00:15:10.832Z,32.11
2022-11-28T00:15:41.285Z,31.91
2022-11-28T00:16:11.717Z,31.91
2022-11-28T00:16:42.126Z,31.91
2022-11-28T00:17:12.550Z,31.81
2022-11-28T00:17:42.971Z,31.81
2022-11-28T00:18:13.391Z,31.81
2022-11-28T00:18:43.811Z,31.81
2022-11-28T00:19:14.234Z,31.81
2022-11-28T00:19:44.676Z,31.81
2022-11-28T00:20:15.147Z,31.81
2022-11-28T00:20:45.585Z,31.81
2022-11-28T00:21:16.017Z,31.81
2022-11-28T00:21:46.462Z,31.81
2022-11-28T00:22:16.887Z,31.81
2022-11-28T00:22:47.309Z,31.81
2022-11-28T00:23:17.734Z,31.91
2022-11-28T00:23:48.270Z,31.91
2022-11-28T00:24:18.629Z,31.81
2022-11-28T00:24:49.063Z,31.81
2022-11-28T00:25:19.486Z,31.81
2022-11-28T00:25:49.908Z,31.81
2022-11-28T00:26:20.328Z,31.91
2022-11-28T00:26:50.752Z,31.91
2022-11-28T00:27:21.185Z,31.81
2022-11-28T00:27:51.608Z,31.81
2022-11-28T00:28:22.033Z,31.81
2022-11-28T00:28:52.458Z,31.81
2022-11-28T00:29:22.881Z,31.81
2022-11-28T00:29:53.405Z,32.01
2022-11-28T00:30:23.827Z,32.01
2022-11-28T00:30:54.252Z,31.81
2022-11-28T00:31:24.772Z,31.81
2022-11-28T00:31:55.279Z,31.81
2022-11-28T00:32:25.667Z,31.81
2022-11-28T00:32:56.091Z,31.81
2022-11-28T00:33:26.514Z,31.81
2022-11-28T00:33:56.942Z,31.81
2022-11-28T00:34:27.365Z,31.81
2022-11-28T00:34:57.896Z,31.81
2022-11-28T00:35:28.315Z,31.81
2022-11-28T00:35:58.739Z,31.81
2022-11-28T00:36:29.157Z,31.81
2022-11-28T00:36:59.586Z,31.81
2022-11-28T00:37:30.019Z,31.81
2022-11-28T00:38:00.450Z,31.81
2022-11-28T00:38:30.872Z,31.81
2022-11-28T00:39:01.410Z,31.81
2022-11-28T00:39:31.762Z,31.81
2022-11-28T00:40:02.203Z,31.71
2022-11-28T00:40:32.623Z,31.71
2022-11-28T00:41:03.062Z,31.81
2022-11-28T00:41:33.483Z,31.81
2022-11-28T00:42:03.905Z,31.71
2022-11-28T00:42:34.325Z,31.71
2022-11-28T00:43:04.748Z,31.71
2022-11-28T00:43:35.172Z,31.71
2022-11-28T00:44:05.601Z,31.71
2022-11-28T00:44:36.023Z,31.71
2022-11-28T00:45:06.547Z,31.71
2022-11-28T00:45:37.049Z,31.71
2022-11-28T00:46:07.540Z,31.71
2022-11-28T00:46:37.930Z,31.71
2022-11-28T00:47:08.354Z,31.81
2022-11-28T00:47:38.775Z,31.71
2022-11-28T00:48:09.197Z,31.81
2022-11-28T00:48:39.622Z,31.81
2022-11-28T00:49:10.043Z,31.71
2022-11-28T00:49:40.463Z,31.71
2022-11-28T00:50:10.921Z,31.71
2022-11-28T00:50:41.331Z,31.71
2022-11-28T00:51:11.764Z,31.71
2022-11-28T00:51:42.179Z,31.81
2022-11-28T00:52:12.602Z,31.71
2022-11-28T00:52:43.025Z,31.81
2022-11-28T00:53:13.450Z,31.81
2022-11-28T00:53:43.868Z,31.81
2022-11-28T00:54:14.412Z,31.81
2022-11-28T00:54:44.841Z,31.71
2022-11-28T00:55:15.345Z,31.71
2022-11-28T00:55:45.766Z,31.71
2022-11-28T00:56:16.195Z,31.71
2022-11-28T00:56:46.617Z,31.71
2022-11-28T00:57:17.036Z,31.71
2022-11-28T00:57:47.460Z,31.71
2022-11-28T00:58:17.887Z,31.71
2022-11-28T00:58:48.309Z,31.71
2022-11-28T00:59:18.743Z,31.71
2022-11-28T00:59:49.172Z,31.71
2022-11-28T01:00:19.619Z,31.71
2022-11-28T01:00:50.125Z,31.71
2022-11-28T01:01:20.631Z,31.71
2022-11-28T01:01:51.156Z,31.61
2022-11-28T01:02:21.620Z,31.71
2022-11-28T01:02:52.030Z,31.71
2022-11-28T01:03:22.456Z,31.71
2022-11-28T01:03:52.886Z,31.73
2022-11-28T01:04:23.309Z,31.71
2022-11-28T01:04:53.734Z,31.71
2022-11-28T01:05:24.255Z,31.71
2022-11-28T01:05:54.676Z,31.61
2022-11-28T01:06:25.099Z,31.61
2022-11-28T01:06:55.518Z,31.61
2022-11-28T01:07:26.004Z,31.61
2022-11-28T01:07:56.436Z,31.61
2022-11-28T01:08:26.836Z,31.61
2022-11-28T01:08:57.258Z,31.61
2022-11-28T01:09:27.798Z,31.71
2022-11-28T01:09:58.151Z,31.71
2022-11-28T01:10:28.594Z,31.61
2022-11-28T01:10:59.017Z,31.61
2022-11-28T01:11:29.440Z,31.61
2022-11-28T01:11:59.860Z,31.61
2022-11-28T01:12:30.283Z,31.61
2022-11-28T01:13:00.709Z,31.61
2022-11-28T01:13:31.141Z,31.61
2022-11-28T01:14:01.563Z,31.71
2022-11-28T01:14:31.985Z,31.61
2022-11-28T01:15:02.405Z,31.61
2022-11-28T01:15:32.847Z,31.61
2022-11-28T01:16:03.338Z,31.61
2022-11-28T01:16:33.758Z,31.61
2022-11-28T01:17:04.150Z,31.61
2022-11-28T01:17:34.572Z,31.91
2022-11-28T01:18:05.002Z,31.82
2022-11-28T01:18:35.418Z,31.61
2022-11-28T01:19:05.841Z,31.61
2022-11-28T01:19:36.262Z,31.61
2022-11-28T01:20:06.685Z,31.61
2022-11-28T01:20:37.127Z,31.62
2022-11-28T01:21:07.553Z,31.51
2022-11-28T01:21:37.976Z,31.61
2022-11-28T01:22:08.400Z,31.61
2022-11-28T01:22:38.821Z,31.61
2022-11-28T01:23:09.244Z,31.61
2022-11-28T01:23:39.666Z,31.61
2022-11-28T01:24:10.114Z,31.61
2022-11-28T01:24:41.003Z,31.61
2022-11-28T01:25:11.619Z,31.61
2022-11-28T01:25:42.059Z,31.61
2022-11-28T01:26:12.483Z,31.61
2022-11-28T01:26:42.932Z,31.51
2022-11-28T01:27:13.337Z,31.62
2022-11-28T01:27:43.771Z,31.61
2022-11-28T01:28:14.193Z,31.61
2022-11-28T01:28:44.617Z,31.61
2022-11-28T01:29:15.048Z,31.73
2022-11-28T01:29:45.481Z,31.61
2022-11-28T01:30:15.920Z,31.62
2022-11-28T01:30:46.365Z,31.61
2022-11-28T01:31:16.901Z,31.62
2022-11-28T01:31:47.374Z,31.61
2022-11-28T01:32:17.792Z,31.62
2022-11-28T01:32:48.186Z,31.61
2022-11-28T01:33:18.608Z,31.52
2022-11-28T01:33:49.031Z,31.52
2022-11-28T01:34:19.454Z,31.52
2022-11-28T01:34:49.876Z,31.62
2022-11-28T01:35:20.329Z,31.73
2022-11-28T01:35:50.982Z,31.62
2022-11-28T01:36:21.405Z,31.52
2022-11-28T01:36:51.826Z,31.62
2022-11-28T01:37:22.254Z,31.62
2022-11-28T01:37:52.680Z,31.62
2022-11-28T01:38:23.103Z,31.62
2022-11-28T01:38:53.525Z,31.52
2022-11-28T01:39:23.947Z,31.52
2022-11-28T01:39:54.489Z,31.52
2022-11-28T01:40:24.852Z,31.52
2022-11-28T01:40:55.286Z,31.52
2022-11-28T01:41:25.707Z,31.52
2022-11-28T01:41:56.131Z,31.51
2022-11-28T01:42:26.554Z,31.61
2022-11-28T01:42:56.975Z,31.61
2022-11-28T01:43:27.398Z,31.62
2022-11-28T01:43:57.825Z,31.73
2022-11-28T01:44:28.240Z,31.73
2022-11-28T01:44:58.666Z,31.73
2022-11-28T01:45:29.086Z,31.62
2022-11-28T01:45:59.720Z,31.52
2022-11-28T01:46:30.185Z,31.51
2022-11-28T01:47:00.622Z,31.52
2022-11-28T01:47:31.037Z,31.52
2022-11-28T01:48:01.466Z,31.52
2022-11-28T01:48:31.886Z,31.43
2022-11-28T01:49:02.315Z,31.52
2022-11-28T01:49:32.742Z,31.62
2022-11-28T01:50:03.162Z,31.51
2022-11-28T01:50:33.588Z,31.61
2022-11-28T01:51:04.030Z,31.61
2022-11-28T01:51:34.456Z,31.52
2022-11-28T01:52:04.906Z,31.52
2022-11-28T01:52:35.336Z,31.52
2022-11-28T01:53:05.761Z,31.52
2022-11-28T01:53:36.180Z,31.52
2022-11-28T01:54:06.607Z,31.52
2022-11-28T01:54:37.027Z,31.52
2022-11-28T01:55:07.569Z,31.52
2022-11-28T01:55:37.916Z,31.52
2022-11-28T01:56:08.538Z,31.52
2022-11-28T01:56:38.970Z,31.52
2022-11-28T01:57:09.394Z,31.62
2022-11-28T01:57:39.828Z,31.52
2022-11-28T01:58:10.251Z,31.52
2022-11-28T01:58:40.675Z,31.52
2022-11-28T01:59:11.095Z,31.52
2022-11-28T01:59:41.518Z,31.52
2022-11-28T02:00:11.938Z,31.52
2022-11-28T02:00:42.393Z,31.52
2022-11-28T02:01:13.013Z,31.52
2022-11-28T02:01:43.483Z,31.52
2022-11-28T02:02:13.957Z,31.52
2022-11-28T02:02:44.326Z,31.52
2022-11-28T02:03:14.769Z,31.52
2022-11-28T02:03:45.195Z,31.52
2022-11-28T02:04:15.619Z,31.52
2022-11-28T02:04:46.046Z,31.43
2022-11-28T02:05:16.514Z,31.52
2022-11-28T02:05:46.972Z,31.52
2022-11-28T02:06:17.495Z,31.52
2022-11-28T02:06:47.912Z,31.52
2022-11-28T02:07:18.391Z,31.52
2022-11-28T02:07:48.881Z,31.62
2022-11-28T02:08:19.248Z,31.52
2022-11-28T02:08:49.682Z,31.52
2022-11-28T02:09:20.107Z,31.52
2022-11-28T02:09:50.525Z,31.43
2022-11-28T02:10:21.059Z,31.41
2022-11-28T02:10:51.422Z,31.43
2022-11-28T02:11:21.867Z,31.52
2022-11-28T02:11:52.278Z,31.62
2022-11-28T02:12:22.714Z,31.62
2022-11-28T02:12:53.136Z,31.52
2022-11-28T02:13:23.558Z,31.52
2022-11-28T02:13:53.983Z,31.43
2022-11-28T02:14:24.404Z,31.43
2022-11-28T02:14:54.826Z,31.43
2022-11-28T02:15:25.250Z,31.52
2022-11-28T02:15:55.746Z,31.43
2022-11-28T02:16:26.240Z,31.43
2022-11-28T02:16:56.647Z,31.43
2022-11-28T02:17:27.069Z,31.43
2022-11-28T02:17:57.492Z,31.43
2022-11-28T02:18:27.912Z,31.43
2022-11-28T02:18:58.333Z,31.43
2022-11-28T02:19:28.769Z,31.52
2022-11-28T02:19:59.188Z,31.62
2022-11-28T02:20:29.622Z,31.52
2022-11-28T02:21:00.052Z,31.43
2022-11-28T02:21:30.489Z,31.43
2022-11-28T02:22:00.911Z,31.43
2022-11-28T02:22:31.334Z,31.43
2022-11-28T02:23:01.767Z,31.43
2022-11-28T02:23:32.203Z,31.43
2022-11-28T02:24:02.630Z,31.32
2022-11-28T02:24:33.053Z,31.32
2022-11-28T02:25:03.477Z,31.43
2022-11-28T02:25:34.014Z,31.43
2022-11-28T02:26:04.373Z,31.43
2022-11-28T02:26:34.829Z,31.43
2022-11-28T02:27:05.252Z,31.43
2022-11-28T02:27:35.673Z,31.43
2022-11-28T02:28:06.098Z,31.43
2022-11-28T02:28:36.522Z,31.32
2022-11-28T02:29:06.942Z,31.43
2022-11-28T02:29:37.376Z,31.32
2022-11-28T02:30:07.799Z,31.32
2022-11-28T02:30:38.222Z,31.32
2022-11-28T02:31:08.677Z,31.43
2022-11-28T02:31:39.208Z,31.32
2022-11-28T02:32:09.619Z,31.32
2022-11-28T02:32:40.060Z,31.43
2022-11-28T02:33:10.483Z,31.43
2022-11-28T02:33:40.904Z,31.43
2022-11-28T02:34:11.324Z,31.43
2022-11-28T02:34:45.664Z,31.43
2022-11-28T02:35:17.094Z,31.32
2022-11-28T02:35:47.517Z,31.43
2022-11-28T02:36:17.938Z,31.32
2022-11-28T02:36:48.388Z,31.32
2022-11-28T02:37:18.816Z,31.32
2022-11-28T02:37:49.240Z,31.62
2022-11-28T02:38:19.659Z,31.52
2022-11-28T02:38:50.096Z,31.43
2022-11-28T02:39:20.518Z,31.43
2022-11-28T02:39:50.950Z,31.43
2022-11-28T02:40:21.382Z,31.43
2022-11-28T02:40:51.919Z,31.43
2022-11-28T02:41:22.273Z,31.32
2022-11-28T02:41:52.713Z,31.43
2022-11-28T02:42:23.138Z,31.43
2022-11-28T02:42:53.561Z,31.43
2022-11-28T02:43:23.984Z,31.32
2022-11-28T02:43:54.406Z,31.32
2022-11-28T02:44:24.838Z,31.32
2022-11-28T02:44:55.263Z,31.32
2022-11-28T02:45:25.697Z,31.32
2022-11-28T02:45:56.118Z,31.32
2022-11-28T02:46:26.598Z,31.32
2022-11-28T02:46:57.063Z,31.32
2022-11-28T02:47:27.456Z,31.32
2022-11-28T02:47:57.881Z,31.32
2022-11-28T02:48:28.313Z,31.43
2022-11-28T02:48:58.752Z,31.52
2022-11-28T02:49:29.173Z,31.43
2022-11-28T02:49:59.597Z,31.32
2022-11-28T02:50:30.030Z,31.32
2022-11-28T02:51:00.460Z,31.32
2022-11-28T02:51:30.886Z,31.43
2022-11-28T02:52:01.335Z,31.43
2022-11-28T02:52:31.756Z,31.32
2022-11-28T02:53:02.179Z,31.32
2022-11-28T02:53:32.613Z,31.32
2022-11-28T02:54:03.033Z,31.32
2022-11-28T02:54:33.454Z,31.43
2022-11-28T02:55:03.887Z,31.32
2022-11-28T02:55:34.306Z,31.32
2022-11-28T02:56:04.888Z,31.32
2022-11-28T02:56:35.248Z,31.23
2022-11-28T02:57:05.696Z,31.32
2022-11-28T02:57:36.128Z,31.32
2022-11-28T02:58:06.541Z,31.32
2022-11-28T02:58:36.960Z,31.32
2022-11-28T02:59:07.391Z,31.32
2022-11-28T02:59:37.814Z,31.23
2022-11-28T03:00:08.234Z,31.32
2022-11-28T03:00:38.765Z,31.23
2022-11-28T03:01:09.228Z,31.23
2022-11-28T03:01:39.708Z,31.23
2022-11-28T03:02:10.189Z,31.32
2022-11-28T03:02:40.590Z,31.32
2022-11-28T03:03:11.013Z,31.32
2022-11-28T03:03:41.433Z,31.32
2022-11-28T03:04:11.866Z,31.32
2022-11-28T03:04:42.612Z,31.32
2022-11-28T03:05:13.143Z,31.23
2022-11-28T03:05:43.567Z,31.23
2022-11-28T03:06:13.986Z,31.23
2022-11-28T03:06:44.419Z,31.23
2022-11-28T03:07:14.909Z,31.23
2022-11-28T03:07:45.419Z,31.23
2022-11-28T03:08:15.804Z,31.23
2022-11-28T03:08:46.232Z,31.23
2022-11-28T03:09:16.651Z,31.23
2022-11-28T03:09:47.078Z,31.32
2022-11-28T03:10:17.537Z,31.32
2022-11-28T03:10:47.960Z,31.32
2022-11-28T03:11:18.502Z,31.23
2022-11-28T03:11:48.855Z,31.23
2022-11-28T03:12:19.296Z,31.23
2022-11-28T03:12:49.715Z,31.23
2022-11-28T03:13:20.156Z,31.32
2022-11-28T03:13:50.569Z,31.32
2022-11-28T03:14:20.992Z,31.23
2022-11-28T03:14:51.418Z,31.23
2022-11-28T03:15:21.838Z,31.12
2022-11-28T03:15:52.343Z,31.43
2022-11-28T03:16:22.868Z,31.43
2022-11-28T03:16:53.246Z,31.43
2022-11-28T03:17:23.679Z,31.32
2022-11-28T03:17:54.114Z,31.23
2022-11-28T03:18:24.543Z,31.12
2022-11-28T03:18:54.966Z,31.12
2022-11-28T03:19:25.387Z,31.12
2022-11-28T03:19:55.819Z,31.23
2022-11-28T03:20:26.241Z,31.23
2022-11-28T03:20:56.673Z,31.32
2022-11-28T03:21:27.093Z,31.23
2022-11-28T03:21:57.520Z,31.23
2022-11-28T03:22:27.956Z,31.23
2022-11-28T03:22:58.380Z,31.12
2022-11-28T03:23:28.818Z,31.12
2022-11-28T03:23:59.244Z,31.12
2022-11-28T03:24:29.668Z,31.12
2022-11-28T03:25:00.108Z,31.12
2022-11-28T03:25:30.516Z,31.23
2022-11-28T03:26:00.935Z,31.23
2022-11-28T03:26:31.481Z,31.23
2022-11-28T03:27:01.833Z,31.12
2022-11-28T03:27:32.288Z,31.12
2022-11-28T03:28:02.712Z,31.12
2022-11-28T03:28:33.140Z,31.23
2022-11-28T03:29:03.572Z,31.12
2022-11-28T03:29:34.000Z,31.12
2022-11-28T03:30:04.417Z,31.12
2022-11-28T03:30:34.839Z,31.32
2022-11-28T03:31:05.310Z,31.32
2022-11-28T03:31:35.744Z,31.23
2022-11-28T03:32:06.134Z,31.23
2022-11-28T03:32:36.587Z,31.12
2022-11-28T03:33:07.000Z,31.23
2022-11-28T03:33:37.424Z,31.12
2022-11-28T03:34:07.845Z,31.12
2022-11-28T03:34:38.270Z,31.12
2022-11-28T03:35:08.694Z,31.12
2022-11-28T03:35:39.120Z,31.12
2022-11-28T03:36:09.549Z,31.12
2022-11-28T03:36:39.976Z,31.12
2022-11-28T03:37:10.399Z,31.12
2022-11-28T03:37:40.846Z,31.23
2022-11-28T03:38:11.268Z,31.23
2022-11-28T03:38:41.694Z,31.12
2022-11-28T03:39:12.115Z,31.12
2022-11-28T03:39:42.550Z,31.12
2022-11-28T03:40:12.972Z,31.12
2022-11-28T03:40:43.397Z,31.12
2022-11-28T03:41:13.832Z,31.12
2022-11-28T03:41:44.365Z,31.12
2022-11-28T03:42:14.719Z,31.12
2022-11-28T03:42:45.161Z,31.12
2022-11-28T03:43:15.589Z,31.12
2022-11-28T03:43:46.009Z,31.12
2022-11-28T03:44:16.432Z,31.12
2022-11-28T03:44:46.857Z,31.12
2022-11-28T03:45:17.295Z,31.12
2022-11-28T03:45:47.719Z,31.12
2022-11-28T03:46:18.208Z,31.12
2022-11-28T03:46:48.715Z,31.12
2022-11-28T03:47:19.102Z,31.12
2022-11-28T03:47:49.542Z,31.12
2022-11-28T03:48:19.973Z,31.12
2022-11-28T03:48:50.396Z,31.12
2022-11-28T03:49:20.830Z,31.12
2022-11-28T03:49:51.251Z,31.12
2022-11-28T03:50:21.673Z,31.02
2022-11-28T03:50:52.095Z,31.02
2022-11-28T03:51:22.532Z,31.12
2022-11-28T03:51:52.940Z,31.12
2022-11-28T03:52:23.362Z,31.12
2022-11-28T03:52:53.810Z,31.12
2022-11-28T03:53:24.241Z,31.12
2022-11-28T03:53:54.668Z,31.12
2022-11-28T03:54:25.090Z,31.12
2022-11-28T03:54:55.509Z,31.12
2022-11-28T03:55:26.057Z,31.12
2022-11-28T03:55:56.496Z,31.12
2022-11-28T03:56:26.913Z,31.12
2022-11-28T03:56:57.467Z,31.12
2022-11-28T03:57:27.821Z,31.12
2022-11-28T03:57:58.292Z,31.12
2022-11-28T03:58:28.711Z,31.12
2022-11-28T03:58:59.136Z,31.12
2022-11-28T03:59:29.573Z,31.12
2022-11-28T03:59:59.989Z,31.12
2022-11-28T04:00:30.418Z,31.02
2022-11-28T04:01:00.869Z,31.02
2022-11-28T04:01:31.372Z,31.12
2022-11-28T04:02:01.770Z,31.12
2022-11-28T04:02:32.333Z,31.12
2022-11-28T04:03:02.870Z,31.02
2022-11-28T04:03:33.303Z,31.02
2022-11-28T04:04:03.694Z,31.02
2022-11-28T04:04:34.127Z,31.02
2022-11-28T04:05:04.559Z,31.02
2022-11-28T04:05:34.981Z,31.02
2022-11-28T04:06:05.403Z,31.02
2022-11-28T04:06:35.826Z,31.02
2022-11-28T04:07:06.246Z,31.12
2022-11-28T04:07:36.740Z,31.02
2022-11-28T04:08:07.142Z,31.12
2022-11-28T04:08:37.563Z,31.02
2022-11-28T04:09:13.035Z,31.02
2022-11-28T04:09:43.306Z,31.02
2022-11-28T04:10:13.738Z,31.02
2022-11-28T04:10:44.159Z,31.12
2022-11-28T04:11:14.598Z,31.02
2022-11-28T04:11:45.022Z,31.12
2022-11-28T04:12:15.554Z,31.02
2022-11-28T04:12:45.910Z,31.02
2022-11-28T04:13:16.356Z,31.02
2022-11-28T04:13:46.782Z,31.02
2022-11-28T04:14:17.213Z,31.02
2022-11-28T04:14:47.637Z,31.02
2022-11-28T04:15:18.057Z,31.12
2022-11-28T04:15:48.478Z,31.12
2022-11-28T04:16:18.973Z,31.02
2022-11-28T04:16:53.757Z,31.02
2022-11-28T04:17:24.515Z,31.02
2022-11-28T04:17:54.938Z,31.02
2022-11-28T04:18:25.379Z,31.02
2022-11-28T04:18:55.802Z,31.02
2022-11-28T04:19:26.223Z,31.02
2022-11-28T04:19:56.650Z,30.93
2022-11-28T04:20:27.070Z,31.12
2022-11-28T04:20:57.504Z,31.23
2022-11-28T04:21:27.924Z,31.12
2022-11-28T04:21:58.349Z,31.02
2022-11-28T04:22:28.769Z,31.02
2022-11-28T04:22:59.195Z,31.02
2022-11-28T04:23:29.640Z,31.02
2022-11-28T04:24:00.071Z,31.02
2022-11-28T04:24:30.497Z,31.02
2022-11-28T04:25:00.910Z,31.02
2022-11-28T04:25:31.336Z,31.12
2022-11-28T04:26:01.758Z,31.12
2022-11-28T04:26:32.179Z,31.12
2022-11-28T04:27:02.604Z,31.02
2022-11-28T04:27:33.141Z,31.02
2022-11-28T04:28:03.490Z,31.02
2022-11-28T04:28:33.928Z,31.02
2022-11-28T04:29:04.350Z,31.02
2022-11-28T04:29:34.800Z,30.93
2022-11-28T04:30:05.223Z,30.93
2022-11-28T04:30:35.648Z,30.93
2022-11-28T04:31:06.165Z,30.93
2022-11-28T04:31:36.616Z,31.02
2022-11-28T04:32:07.020Z,31.02
2022-11-28T04:32:37.443Z,31.02
2022-11-28T04:33:07.864Z,31.02
2022-11-28T04:33:38.304Z,31.02
2022-11-28T04:34:08.724Z,30.93
2022-11-28T04:34:39.153Z,30.93
2022-11-28T04:35:09.571Z,31.02
2022-11-28T04:35:39.993Z,30.93
2022-11-28T04:36:10.414Z,31.02
2022-11-28T04:36:40.834Z,31.02
2022-11-28T04:37:11.256Z,30.93
2022-11-28T04:37:41.691Z,31.02
2022-11-28T04:38:12.114Z,31.02
2022-11-28T04:38:42.561Z,30.93
2022-11-28T04:39:12.982Z,30.93
2022-11-28T04:39:43.405Z,30.93
2022-11-28T04:40:13.830Z,30.93
2022-11-28T04:40:44.247Z,30.93
2022-11-28T04:41:14.673Z,30.93
2022-11-28T04:41:45.097Z,30.93
2022-11-28T04:42:15.538Z,30.93
2022-11-28T04:42:49.982Z,30.93
2022-11-28T04:43:21.292Z,30.93
2022-11-28T04:43:51.739Z,30.93
2022-11-28T04:44:22.160Z,30.93
2022-11-28T04:44:52.584Z,30.93
2022-11-28T04:45:23.014Z,31.02
2022-11-28T04:45:53.473Z,31.02
2022-11-28T04:46:23.971Z,31.02
2022-11-28T04:46:54.381Z,31.02
2022-11-28T04:47:24.808Z,31.02
2022-11-28T04:47:55.231Z,30.93
2022-11-28T04:48:28.722Z,31.12
2022-11-28T04:49:01.005Z,31.02
2022-11-28T04:49:31.426Z,30.93
2022-11-28T04:50:01.861Z,30.93
2022-11-28T04:50:32.292Z,31.12
2022-11-28T04:51:02.714Z,31.02
2022-11-28T04:51:33.136Z,31.02
2022-11-28T04:52:03.558Z,31.02
2022-11-28T04:52:33.978Z,31.02
2022-11-28T04:53:04.400Z,30.93
2022-11-28T04:53:34.828Z,30.93
2022-11-28T04:54:05.272Z,30.93
2022-11-28T04:54:35.695Z,30.93
2022-11-28T04:55:06.121Z,30.93
2022-11-28T04:55:36.547Z,30.93
2022-11-28T04:56:06.970Z,30.93
2022-11-28T04:56:37.394Z,30.93
2022-11-28T04:57:07.817Z,30.93
2022-11-28T04:57:38.240Z,30.93
2022-11-28T04:58:08.785Z,30.93
2022-11-28T04:58:39.135Z,30.93
2022-11-28T04:59:09.596Z,30.93
2022-11-28T04:59:40.011Z,30.93
2022-11-28T05:00:10.435Z,30.93
2022-11-28T05:00:40.922Z,31.23
2022-11-28T05:01:11.372Z,31.23
2022-11-28T05:01:41.866Z,31.02
2022-11-28T05:02:12.345Z,31.02
2022-11-28T05:02:42.717Z,30.93
2022-11-28T05:03:13.146Z,31.02
2022-11-28T05:03:43.579Z,30.93
2022-11-28T05:04:14.032Z,30.93
2022-11-28T05:04:44.779Z,30.93
2022-11-28T05:05:15.282Z,30.93
2022-11-28T05:05:45.713Z,31.02
2022-11-28T05:06:16.135Z,30.93
2022-11-28T05:06:46.560Z,31.02
2022-11-28T05:07:17.014Z,30.93
2022-11-28T05:07:47.456Z,30.93
2022-11-28T05:08:17.853Z,30.82
2022-11-28T05:08:48.282Z,30.93
2022-11-28T05:09:18.733Z,30.82
2022-11-28T05:09:49.154Z,30.93
2022-11-28T05:10:19.575Z,30.93
2022-11-28T05:10:50.026Z,30.93
2022-11-28T05:11:20.449Z,30.93
2022-11-28T05:11:50.868Z,30.93
2022-11-28T05:12:21.288Z,30.93
2022-11-28T05:12:51.706Z,31.02
2022-11-28T05:13:22.244Z,30.93
2022-11-28T05:13:52.628Z,30.93
2022-11-28T05:14:23.069Z,30.93
2022-11-28T05:14:53.490Z,31.02
2022-11-28T05:15:23.909Z,30.93
2022-11-28T05:15:54.344Z,30.82
2022-11-28T05:16:24.848Z,30.82
2022-11-28T05:16:55.302Z,30.93
2022-11-28T05:17:25.711Z,31.02
2022-11-28T05:17:56.133Z,30.82
2022-11-28T05:18:26.555Z,30.82
2022-11-28T05:18:56.973Z,30.93
2022-11-28T05:19:27.414Z,30.82
2022-11-28T05:19:57.837Z,30.93
2022-11-28T05:20:28.255Z,30.93
2022-11-28T05:20:58.677Z,30.82
2022-11-28T05:21:29.112Z,30.82
2022-11-28T05:21:59.537Z,30.82
2022-11-28T05:22:29.954Z,30.82
2022-11-28T05:23:00.382Z,30.93
2022-11-28T05:23:30.801Z,30.93
2022-11-28T05:24:01.222Z,30.93
2022-11-28T05:24:32.479Z,30.93
2022-11-28T05:25:02.945Z,30.82
2022-11-28T05:25:33.374Z,31.02
2022-11-28T05:26:03.796Z,30.93
2022-11-28T05:26:34.222Z,30.93
2022-11-28T05:27:04.646Z,30.82
2022-11-28T05:27:35.062Z,30.93
2022-11-28T05:28:05.486Z,30.93
2022-11-28T05:28:36.033Z,30.82
2022-11-28T05:29:06.389Z,30.82
2022-11-28T05:29:36.834Z,30.82
2022-11-28T05:30:07.253Z,30.82
2022-11-28T05:30:37.679Z,30.82
2022-11-28T05:31:08.161Z,30.82
2022-11-28T05:31:38.555Z,30.82
2022-11-28T05:32:08.945Z,30.82
2022-11-28T05:32:39.367Z,30.93
2022-11-28T05:33:09.789Z,30.93
2022-11-28T05:33:40.211Z,30.82
2022-11-28T05:34:10.634Z,30.82
2022-11-28T05:34:41.235Z,30.82
2022-11-28T05:35:11.750Z,30.82
2022-11-28T05:35:42.172Z,30.82
2022-11-28T05:36:13.518Z,30.82
2022-11-28T05:36:44.118Z,30.82
2022-11-28T05:37:14.526Z,30.73
2022-11-28T05:37:44.949Z,30.73
2022-11-28T05:38:15.391Z,30.73
2022-11-28T05:38:45.815Z,30.73
2022-11-28T05:39:16.242Z,30.73
2022-11-28T05:39:46.696Z,30.73
2022-11-28T05:40:17.126Z,30.73
2022-11-28T05:40:47.548Z,30.73
2022-11-28T05:41:17.978Z,30.82
2022-11-28T05:41:48.401Z,30.82
2022-11-28T05:42:18.823Z,30.82
2022-11-28T05:42:49.246Z,30.82
2022-11-28T05:43:19.668Z,30.82
2022-11-28T05:43:50.119Z,30.82
2022-11-28T05:44:25.438Z,30.93
2022-11-28T05:44:55.884Z,30.82
2022-11-28T05:45:26.378Z,30.82
2022-11-28T05:45:56.862Z,30.82
2022-11-28T05:46:27.265Z,30.73
2022-11-28T05:46:57.686Z,30.82
2022-11-28T05:47:28.112Z,30.73
2022-11-28T05:47:58.530Z,30.73
2022-11-28T05:48:28.964Z,30.73
2022-11-28T05:48:59.384Z,30.73
2022-11-28T05:49:29.820Z,30.93
2022-11-28T05:50:00.253Z,30.93
2022-11-28T05:50:31.496Z,30.82
2022-11-28T05:51:04.037Z,30.82
2022-11-28T05:51:34.464Z,30.82
2022-11-28T05:52:04.886Z,30.73
2022-11-28T05:52:35.310Z,30.73
2022-11-28T05:53:05.735Z,30.73
2022-11-28T05:53:36.151Z,30.73
2022-11-28T05:54:06.582Z,30.73
2022-11-28T05:54:37.010Z,30.73
2022-11-28T05:55:07.445Z,30.73
2022-11-28T05:55:37.869Z,30.82
2022-11-28T05:56:08.305Z,30.82
2022-11-28T05:56:42.370Z,30.73
2022-11-28T05:57:13.001Z,30.73
2022-11-28T05:57:43.421Z,30.82
2022-11-28T05:58:13.855Z,30.82
2022-11-28T05:58:44.266Z,30.82
2022-11-28T05:59:14.816Z,30.73
2022-11-28T05:59:45.487Z,30.73
2022-11-28T06:00:16.043Z,30.73
2022-11-28T06:00:46.461Z,30.73
2022-11-28T06:01:16.888Z,30.73
2022-11-28T06:01:47.359Z,30.73
2022-11-28T06:02:17.790Z,30.73
2022-11-28T06:02:48.226Z,30.73
2022-11-28T06:03:18.652Z,30.73
2022-11-28T06:03:49.074Z,30.73
2022-11-28T06:04:19.600Z,30.73
2022-11-28T06:04:50.064Z,30.62
2022-11-28T06:05:41.682Z,30.73
2022-11-28T06:05:55.875Z,30.62
2022-11-28T06:06:26.296Z,30.62
2022-11-28T06:06:56.740Z,30.62
2022-11-28T06:07:27.244Z,30.73
2022-11-28T06:07:57.671Z,30.73
2022-11-28T06:08:28.073Z,30.62
2022-11-28T06:08:58.502Z,30.73
2022-11-28T06:09:28.921Z,30.73
2022-11-28T06:09:59.345Z,30.62
2022-11-28T06:10:29.797Z,30.62
2022-11-28T06:11:00.240Z,30.62
2022-11-28T06:11:30.659Z,30.62
2022-11-28T06:12:01.080Z,30.62
2022-11-28T06:12:31.506Z,30.62
2022-11-28T06:13:01.929Z,30.73
2022-11-28T06:13:32.355Z,30.82
2022-11-28T06:14:02.773Z,30.73
2022-11-28T06:14:33.315Z,30.73
2022-11-28T06:15:03.676Z,30.62
2022-11-28T06:15:37.894Z,30.62
2022-11-28T06:16:09.033Z,30.73
2022-11-28T06:16:39.537Z,30.73
2022-11-28T06:17:09.918Z,30.73
2022-11-28T06:17:40.339Z,30.73
2022-11-28T06:18:10.773Z,30.82
2022-11-28T06:18:41.189Z,30.82
2022-11-28T06:19:11.609Z,30.73
2022-11-28T06:19:42.599Z,30.73
2022-11-28T06:20:13.186Z,30.62
2022-11-28T06:20:43.788Z,30.62
2022-11-28T06:21:14.211Z,30.62
2022-11-28T06:21:44.631Z,30.62
2022-11-28T06:22:15.066Z,30.62
2022-11-28T06:22:45.484Z,30.62
2022-11-28T06:23:15.928Z,30.62
2022-11-28T06:23:46.350Z,30.62
2022-11-28T06:24:16.773Z,30.62
2022-11-28T06:24:47.201Z,30.62
2022-11-28T06:25:17.626Z,30.62
2022-11-28T06:25:48.068Z,30.62
2022-11-28T06:26:18.499Z,30.62
2022-11-28T06:26:48.922Z,30.62
2022-11-28T06:27:19.341Z,30.62
2022-11-28T06:27:49.764Z,30.62
2022-11-28T06:28:20.192Z,30.73
2022-11-28T06:28:50.608Z,30.73
2022-11-28T06:29:21.027Z,30.62
2022-11-28T06:29:51.584Z,30.62
2022-11-28T06:30:21.935Z,30.62
2022-11-28T06:30:52.376Z,30.52
2022-11-28T06:31:22.873Z,30.52
2022-11-28T06:31:53.393Z,30.62
2022-11-28T06:32:23.830Z,30.62
2022-11-28T06:32:54.247Z,30.73